createdAt,value
2018-07-20T00:00:15.291Z,941.43
2018-07-20T00:02:34.082Z,941.39
2018-07-20T00:03:42.232Z,941.40
2018-07-20T00:04:50.392Z,941.40
2018-07-20T00:05:58.469Z,941.38
2018-07-20T00:07:06.555Z,941.35
2018-07-20T00:08:14.626Z,941.37
2018-07-20T00:09:22.756Z,941.34
2018-07-20T00:10:30.742Z,941.34
2018-07-20T00:11:39.103Z,941.35
2018-07-20T00:12:47.074Z,941.33
2018-07-20T00:13:55.140Z,941.31
2018-07-20T00:15:03.310Z,941.32
2018-07-20T00:16:11.285Z,941.30
2018-07-20T00:17:19.611Z,941.32
2018-07-20T00:18:27.411Z,941.28
2018-07-20T00:19:35.461Z,941.25
2018-07-20T00:20:43.635Z,941.26
2018-07-20T00:21:51.717Z,941.21
2018-07-20T00:22:59.667Z,941.21
2018-07-20T00:24:07.743Z,941.21
2018-07-20T00:25:15.785Z,941.18
2018-07-20T00:26:23.968Z,941.17
2018-07-20T00:27:32.053Z,941.15
2018-07-20T00:28:40.488Z,941.13
2018-07-20T00:29:48.293Z,941.10
2018-07-20T00:30:56.361Z,941.13
2018-07-20T00:32:04.516Z,941.10
2018-07-20T00:33:12.474Z,941.08
2018-07-20T00:34:20.534Z,941.11
2018-07-20T00:35:28.609Z,941.08
2018-07-20T00:36:36.668Z,941.08
2018-07-20T00:37:44.841Z,941.08
2018-07-20T00:38:53.009Z,941.04
2018-07-20T00:40:01.073Z,941.07
2018-07-20T00:41:09.139Z,941.03
2018-07-20T00:42:17.218Z,941.05
2018-07-20T00:43:25.482Z,941.04
2018-07-20T00:44:33.456Z,941.02
2018-07-20T00:45:41.417Z,941.00
2018-07-20T00:46:49.486Z,941.01
2018-07-20T00:47:57.599Z,940.99
2018-07-20T00:49:05.796Z,941.00
2018-07-20T00:50:13.768Z,940.99
2018-07-20T00:51:21.815Z,940.98
2018-07-20T00:52:29.808Z,940.99
2018-07-20T00:53:43.159Z,940.98
2018-07-20T00:54:46.039Z,940.96
2018-07-20T00:55:54.037Z,940.98
2018-07-20T00:57:02.085Z,941.00
2018-07-20T00:58:10.247Z,940.97
2018-07-20T00:59:18.209Z,940.96
2018-07-20T01:00:36.740Z,940.99
2018-07-20T01:01:34.347Z,940.97
2018-07-20T01:02:42.435Z,941.00
2018-07-20T01:03:50.583Z,941.01
2018-07-20T01:04:58.562Z,940.97
2018-07-20T01:06:06.719Z,940.95
2018-07-20T01:07:14.805Z,940.97
2018-07-20T01:08:22.759Z,940.95
2018-07-20T01:09:30.834Z,940.97
2018-07-20T01:10:38.959Z,940.93
2018-07-20T01:11:47.063Z,940.91
2018-07-20T01:12:55.222Z,940.91
2018-07-20T01:14:03.305Z,940.91
2018-07-20T01:15:11.647Z,940.93
2018-07-20T01:17:07.056Z,940.91
2018-07-20T01:17:27.612Z,940.88
2018-07-20T01:18:35.560Z,940.86
2018-07-20T01:19:43.644Z,940.87
2018-07-20T01:20:51.730Z,940.86
2018-07-20T01:22:00.048Z,940.85
2018-07-20T01:23:07.943Z,940.81
2018-07-20T01:24:15.920Z,940.83
2018-07-20T01:25:25.567Z,940.86
2018-07-20T01:26:33.659Z,940.87
2018-07-20T01:27:41.742Z,940.81
2018-07-20T01:28:49.856Z,940.76
2018-07-20T01:29:57.883Z,940.78
2018-07-20T01:31:05.924Z,940.79
2018-07-20T01:32:14.097Z,940.78
2018-07-20T01:33:22.076Z,940.77
2018-07-20T01:34:30.241Z,940.78
2018-07-20T01:35:38.205Z,940.76
2018-07-20T01:36:46.273Z,940.73
2018-07-20T01:37:54.341Z,940.74
2018-07-20T01:39:02.417Z,940.78
2018-07-20T01:40:10.579Z,940.75
2018-07-20T01:41:18.547Z,940.74
2018-07-20T01:42:26.831Z,940.72
2018-07-20T01:43:34.927Z,940.74
2018-07-20T01:44:42.952Z,940.71
2018-07-20T01:45:51.132Z,940.71
2018-07-20T01:46:59.100Z,940.74
2018-07-20T01:48:07.356Z,940.72
2018-07-20T01:49:15.229Z,940.74
2018-07-20T01:50:23.405Z,940.71
2018-07-20T01:51:31.370Z,940.71
2018-07-20T01:52:39.435Z,940.68
2018-07-20T01:53:47.498Z,940.67
2018-07-20T01:54:55.542Z,940.68
2018-07-20T01:56:03.723Z,940.70
2018-07-20T01:57:11.708Z,940.71
2018-07-20T01:58:19.856Z,940.69
2018-07-20T01:59:28.097Z,940.69
2018-07-20T02:00:35.894Z,940.64
2018-07-20T02:01:44.078Z,940.63
2018-07-20T02:02:52.062Z,940.63
2018-07-20T02:04:00.213Z,940.63
2018-07-20T02:05:08.271Z,940.68
2018-07-20T02:06:16.258Z,940.63
2018-07-20T02:07:24.680Z,940.66
2018-07-20T02:08:32.386Z,940.63
2018-07-20T02:09:40.450Z,940.61
2018-07-20T02:10:48.508Z,940.58
2018-07-20T02:11:56.629Z,940.61
2018-07-20T02:13:05.117Z,940.58
2018-07-20T02:14:12.731Z,940.56
2018-07-20T02:15:20.782Z,940.55
2018-07-20T02:16:28.849Z,940.55
2018-07-20T02:17:36.911Z,940.54
2018-07-20T02:18:45.054Z,940.52
2018-07-20T02:19:53.134Z,940.52
2018-07-20T02:21:01.215Z,940.52
2018-07-20T02:22:09.271Z,940.52
2018-07-20T02:23:17.252Z,940.48
2018-07-20T02:24:25.348Z,940.48
2018-07-20T02:25:33.423Z,940.47
2018-07-20T02:26:41.446Z,940.49
2018-07-20T02:27:49.520Z,940.47
2018-07-20T02:28:57.604Z,940.47
2018-07-20T02:30:05.732Z,940.45
2018-07-20T02:31:13.718Z,940.48
2018-07-20T02:32:21.775Z,940.46
2018-07-20T02:33:29.842Z,940.46
2018-07-20T02:34:37.905Z,940.46
2018-07-20T02:35:46.079Z,940.45
2018-07-20T02:36:54.129Z,940.50
2018-07-20T02:38:02.091Z,940.51
2018-07-20T02:39:10.164Z,940.48
2018-07-20T02:40:18.430Z,940.49
2018-07-20T02:41:26.611Z,940.50
2018-07-20T02:42:34.611Z,940.51
2018-07-20T02:43:42.641Z,940.50
2018-07-20T02:44:50.708Z,940.51
2018-07-20T02:45:58.861Z,940.52
2018-07-20T02:47:06.934Z,940.49
2018-07-20T02:48:14.948Z,940.49
2018-07-20T02:49:22.946Z,940.47
2018-07-20T02:50:31.221Z,940.50
2018-07-20T02:51:39.329Z,940.47
2018-07-20T02:52:47.459Z,940.48
2018-07-20T02:53:55.392Z,940.44
2018-07-20T02:55:03.617Z,940.45
2018-07-20T02:56:11.552Z,940.44
2018-07-20T02:57:19.985Z,940.42
2018-07-20T02:58:28.032Z,940.48
2018-07-20T02:59:36.315Z,940.44
2018-07-20T03:00:43.815Z,940.45
2018-07-20T03:01:51.879Z,940.43
2018-07-20T03:02:59.980Z,940.42
2018-07-20T03:04:08.360Z,940.43
2018-07-20T03:05:16.274Z,940.39
2018-07-20T03:06:24.412Z,940.40
2018-07-20T03:07:32.769Z,940.42
2018-07-20T03:08:40.526Z,940.45
2018-07-20T03:09:48.643Z,940.43
2018-07-20T03:10:56.614Z,940.44
2018-07-20T03:12:04.732Z,940.46
2018-07-20T03:13:12.846Z,940.46
2018-07-20T03:14:20.820Z,940.46
2018-07-20T03:15:28.963Z,940.47
2018-07-20T03:16:36.958Z,940.44
2018-07-20T03:17:45.014Z,940.47
2018-07-20T03:18:53.275Z,940.44
2018-07-20T03:20:01.338Z,940.45
2018-07-20T03:21:09.613Z,940.43
2018-07-20T03:22:17.474Z,940.42
2018-07-20T03:23:30.793Z,940.43
2018-07-20T03:24:34.649Z,940.44
2018-07-20T03:25:41.729Z,940.42
2018-07-20T03:26:49.840Z,940.45
2018-07-20T03:27:58.087Z,940.48
2018-07-20T03:29:05.855Z,940.46
2018-07-20T03:30:13.953Z,940.48
2018-07-20T03:31:22.019Z,940.43
2018-07-20T03:32:30.168Z,940.47
2018-07-20T03:33:38.148Z,940.46
2018-07-20T03:34:46.208Z,940.43
2018-07-20T03:35:54.277Z,940.44
2018-07-20T03:37:02.587Z,940.44
2018-07-20T03:38:10.446Z,940.45
2018-07-20T03:39:18.559Z,940.45
2018-07-20T03:40:26.539Z,940.46
2018-07-20T03:41:34.599Z,940.45
2018-07-20T03:42:43.054Z,940.41
2018-07-20T03:43:50.994Z,940.40
2018-07-20T03:44:59.010Z,940.39
2018-07-20T03:46:07.073Z,940.38
2018-07-20T03:47:15.132Z,940.42
2018-07-20T03:48:23.296Z,940.38
2018-07-20T03:49:31.277Z,940.37
2018-07-20T03:50:39.350Z,940.39
2018-07-20T03:51:47.404Z,940.41
2018-07-20T03:52:55.448Z,940.41
2018-07-20T03:54:03.623Z,940.38
2018-07-20T03:55:11.751Z,940.40
2018-07-20T03:56:19.682Z,940.38
2018-07-20T03:57:27.733Z,940.41
2018-07-20T03:58:35.808Z,940.44
2018-07-20T03:59:43.967Z,940.45
2018-07-20T04:00:51.947Z,940.44
2018-07-20T04:02:00.057Z,940.43
2018-07-20T04:03:08.069Z,940.42
2018-07-20T04:04:16.143Z,940.44
2018-07-20T04:05:24.297Z,940.47
2018-07-20T04:06:32.287Z,940.44
2018-07-20T04:07:40.328Z,940.46
2018-07-20T04:08:48.404Z,940.45
2018-07-20T04:09:56.657Z,940.44
2018-07-20T04:11:04.625Z,940.44
2018-07-20T04:12:12.707Z,940.41
2018-07-20T04:13:20.652Z,940.42
2018-07-20T04:14:28.738Z,940.39
2018-07-20T04:15:37.096Z,940.44
2018-07-20T04:16:44.879Z,940.40
2018-07-20T04:17:52.934Z,940.42
2018-07-20T04:19:00.997Z,940.42
2018-07-20T04:20:09.118Z,940.45
2018-07-20T04:21:17.221Z,940.38
2018-07-20T04:22:25.205Z,940.38
2018-07-20T04:23:33.260Z,940.44
2018-07-20T04:24:41.343Z,940.48
2018-07-20T04:25:51.688Z,940.47
2018-07-20T04:26:57.574Z,940.47
2018-07-20T04:28:06.237Z,940.49
2018-07-20T04:29:13.595Z,940.50
2018-07-20T04:30:22.046Z,940.56
2018-07-20T04:31:29.743Z,940.55
2018-07-20T04:32:38.381Z,940.52
2018-07-20T04:33:45.848Z,940.53
2018-07-20T04:34:54.190Z,940.54
2018-07-20T04:36:01.998Z,940.54
2018-07-20T04:37:10.044Z,940.56
2018-07-20T04:38:18.498Z,940.57
2018-07-20T04:39:26.187Z,940.58
2018-07-20T04:40:34.399Z,940.57
2018-07-20T04:41:42.443Z,940.58
2018-07-20T04:42:50.519Z,940.57
2018-07-20T04:43:58.585Z,940.63
2018-07-20T04:45:06.525Z,940.58
2018-07-20T04:46:14.641Z,940.59
2018-07-20T04:47:22.660Z,940.61
2018-07-20T04:48:30.736Z,940.60
2018-07-20T04:49:38.893Z,940.60
2018-07-20T04:50:46.999Z,940.58
2018-07-20T04:51:54.934Z,940.58
2018-07-20T04:53:02.991Z,940.61
2018-07-20T04:54:11.076Z,940.65
2018-07-20T04:55:19.245Z,940.65
2018-07-20T04:56:27.204Z,940.62
2018-07-20T04:57:35.256Z,940.60
2018-07-20T04:58:43.452Z,940.60
2018-07-20T04:59:51.418Z,940.58
2018-07-20T05:00:59.561Z,940.56
2018-07-20T05:02:07.871Z,940.56
2018-07-20T05:03:15.917Z,940.57
2018-07-20T05:04:23.994Z,940.55
2018-07-20T05:05:32.140Z,940.59
2018-07-20T05:06:40.377Z,940.58
2018-07-20T05:07:48.679Z,940.68
2018-07-20T05:08:57.537Z,940.83
2018-07-20T05:10:04.367Z,940.87
2018-07-20T05:11:13.798Z,940.96
2018-07-20T05:12:22.224Z,941.04
2018-07-20T05:13:29.716Z,940.89
2018-07-20T05:14:37.502Z,940.73
2018-07-20T05:15:45.151Z,940.71
2018-07-20T05:16:53.281Z,940.63
2018-07-20T05:18:01.403Z,940.68
2018-07-20T05:19:09.422Z,940.68
2018-07-20T05:20:17.434Z,940.69
2018-07-20T05:21:25.530Z,940.63
2018-07-20T05:22:33.608Z,940.67
2018-07-20T05:23:41.730Z,940.65
2018-07-20T05:24:49.794Z,940.64
2018-07-20T05:25:57.782Z,940.66
2018-07-20T05:27:05.840Z,940.64
2018-07-20T05:28:13.918Z,940.62
2018-07-20T05:29:22.072Z,940.65
2018-07-20T05:30:30.062Z,940.62
2018-07-20T05:31:38.118Z,940.64
2018-07-20T05:32:46.196Z,940.63
2018-07-20T05:33:54.246Z,940.61
2018-07-20T05:35:02.432Z,940.67
2018-07-20T05:36:10.394Z,940.66
2018-07-20T05:37:18.454Z,940.64
2018-07-20T05:38:26.536Z,940.69
2018-07-20T05:39:34.602Z,940.63
2018-07-20T05:41:56.591Z,940.62
2018-07-20T05:44:18.388Z,940.59
2018-07-20T05:45:26.442Z,940.61
2018-07-20T05:46:34.577Z,940.59
2018-07-20T05:47:42.568Z,940.61
2018-07-20T05:48:50.647Z,940.60
2018-07-20T05:51:12.424Z,940.58
2018-07-20T05:52:20.331Z,940.60
2018-07-20T05:53:28.483Z,940.61
2018-07-20T05:54:36.425Z,940.60
2018-07-20T05:55:44.500Z,940.56
2018-07-20T05:56:52.661Z,940.58
2018-07-20T05:58:00.828Z,940.56
2018-07-20T05:59:08.698Z,940.57
2018-07-20T06:00:16.892Z,940.55
2018-07-20T06:01:24.889Z,940.57
2018-07-20T06:02:32.998Z,940.55
2018-07-20T06:03:40.970Z,940.60
2018-07-20T06:04:49.249Z,940.60
2018-07-20T06:05:57.319Z,940.63
2018-07-20T06:07:05.360Z,940.63
2018-07-20T06:08:13.539Z,940.66
2018-07-20T06:09:21.532Z,940.64
2018-07-20T06:10:29.597Z,940.61
2018-07-20T06:11:37.670Z,940.64
2018-07-20T06:12:45.706Z,940.62
2018-07-20T06:13:53.885Z,940.62
2018-07-20T06:15:02.849Z,940.61
2018-07-20T06:16:10.933Z,940.62
2018-07-20T06:17:19.008Z,940.65
2018-07-20T06:18:27.081Z,940.71
2018-07-20T06:19:35.379Z,940.73
2018-07-20T06:20:43.484Z,940.72
2018-07-20T06:21:51.471Z,940.79
2018-07-20T06:22:59.560Z,940.78
2018-07-20T06:24:07.652Z,940.78
2018-07-20T06:25:16.055Z,940.73
2018-07-20T06:26:23.967Z,940.70
2018-07-20T06:27:32.037Z,940.73
2018-07-20T06:28:40.103Z,940.71
2018-07-20T06:29:48.261Z,940.69
2018-07-20T06:32:13.828Z,940.67
2018-07-20T06:33:21.468Z,940.67
2018-07-20T06:34:29.546Z,940.67
2018-07-20T06:35:37.657Z,940.69
2018-07-20T06:36:45.649Z,940.74
2018-07-20T06:37:53.969Z,940.74
2018-07-20T06:39:02.016Z,940.75
2018-07-20T06:40:10.146Z,940.75
2018-07-20T06:41:18.577Z,940.71
2018-07-20T06:42:26.233Z,940.70
2018-07-20T06:43:34.353Z,940.70
2018-07-20T06:44:42.365Z,940.72
2018-07-20T06:45:50.455Z,940.74
2018-07-20T06:46:58.521Z,940.72
2018-07-20T06:48:06.597Z,940.76
2018-07-20T06:49:14.665Z,940.75
2018-07-20T06:50:22.726Z,940.76
2018-07-20T06:51:31.206Z,940.75
2018-07-20T06:52:38.959Z,940.75
2018-07-20T06:53:46.941Z,940.79
2018-07-20T06:54:55.059Z,940.81
2018-07-20T06:56:03.076Z,940.77
2018-07-20T06:57:11.245Z,940.79
2018-07-20T06:58:19.218Z,940.78
2018-07-20T06:59:27.289Z,940.81
2018-07-20T07:00:35.406Z,940.83
2018-07-20T07:01:43.499Z,940.81
2018-07-20T07:02:51.763Z,940.83
2018-07-20T07:03:59.724Z,940.84
2018-07-20T07:05:07.666Z,940.84
2018-07-20T07:06:15.692Z,940.84
2018-07-20T07:07:23.901Z,940.84
2018-07-20T07:08:31.867Z,940.84
2018-07-20T07:09:39.944Z,940.88
2018-07-20T07:10:48.006Z,940.84
2018-07-20T07:11:56.073Z,940.87
2018-07-20T07:13:04.237Z,940.89
2018-07-20T07:14:12.226Z,940.89
2018-07-20T07:15:20.342Z,940.90
2018-07-20T07:16:28.469Z,940.92
2018-07-20T07:17:36.460Z,940.97
2018-07-20T07:18:44.593Z,941.03
2018-07-20T07:19:52.584Z,941.20
2018-07-20T07:21:00.652Z,941.24
2018-07-20T07:22:08.772Z,941.16
2018-07-20T07:24:30.172Z,941.61
2018-07-20T07:25:37.191Z,941.57
2018-07-20T07:26:45.244Z,941.46
2018-07-20T07:27:53.314Z,941.36
2018-07-20T07:29:01.503Z,941.40
2018-07-20T07:30:09.473Z,941.44
2018-07-20T07:31:17.555Z,941.45
2018-07-20T07:32:25.695Z,941.34
2018-07-20T07:33:33.709Z,941.36
2018-07-20T07:34:41.871Z,941.29
2018-07-20T07:35:49.919Z,941.47
2018-07-20T07:36:58.180Z,942.07
2018-07-20T07:38:06.087Z,942.38
2018-07-20T07:39:14.075Z,942.32
2018-07-20T07:40:22.236Z,942.30
2018-07-20T07:41:30.228Z,942.44
2018-07-20T07:42:38.306Z,942.55
2018-07-20T07:43:46.416Z,942.69
2018-07-20T07:44:54.553Z,942.69
2018-07-20T07:46:02.548Z,942.66
2018-07-20T07:47:13.040Z,942.75
2018-07-20T07:48:22.400Z,942.82
2018-07-20T07:49:30.370Z,942.80
2018-07-20T07:50:38.556Z,942.97
2018-07-20T07:51:46.548Z,942.93
2018-07-20T07:52:54.616Z,942.93
2018-07-20T07:54:02.706Z,943.22
2018-07-20T07:55:10.790Z,943.29
2018-07-20T07:56:18.895Z,943.33
2018-07-20T07:57:26.949Z,943.60
2018-07-20T07:58:35.025Z,943.74
2018-07-20T07:59:43.112Z,943.88
2018-07-20T08:00:51.194Z,944.00
2018-07-20T08:01:59.373Z,944.30
2018-07-20T08:03:07.994Z,944.67
2018-07-20T08:04:16.127Z,945.02
2018-07-20T08:05:24.111Z,945.16
2018-07-20T08:06:32.199Z,945.36
2018-07-20T08:07:40.343Z,945.78
2018-07-20T08:08:48.363Z,946.01
2018-07-20T08:09:56.471Z,945.94
2018-07-20T08:11:04.647Z,946.13
2018-07-20T08:12:12.726Z,946.40
2018-07-20T08:13:20.680Z,946.54
2018-07-20T08:14:28.764Z,946.53
2018-07-20T08:15:36.849Z,946.81
2018-07-20T08:16:44.942Z,947.33
2018-07-20T08:17:53.114Z,947.12
2018-07-20T08:19:01.116Z,946.73
2018-07-20T08:20:09.274Z,946.54
2018-07-20T08:21:17.271Z,946.85
2018-07-20T08:22:25.340Z,947.55
2018-07-20T08:23:34.220Z,947.82
2018-07-20T08:24:41.521Z,947.44
2018-07-20T08:25:49.604Z,947.46
2018-07-20T08:26:57.701Z,946.80
2018-07-20T08:28:05.736Z,946.99
2018-07-20T08:29:13.956Z,946.96
2018-07-20T08:30:21.934Z,947.51
2018-07-20T08:31:30.029Z,947.59
2018-07-20T08:32:38.113Z,947.70
2018-07-20T08:33:46.277Z,947.25
2018-07-20T08:34:54.272Z,947.01
2018-07-20T08:36:02.452Z,947.32
2018-07-20T08:37:10.703Z,947.51
2018-07-20T08:38:18.523Z,947.69
2018-07-20T08:39:26.708Z,947.46
2018-07-20T08:40:34.707Z,947.20
2018-07-20T08:41:42.772Z,947.19
2018-07-20T08:42:50.851Z,945.87
2018-07-20T08:43:58.936Z,947.95
2018-07-20T08:45:07.333Z,945.14
2018-07-20T08:46:15.288Z,947.03
2018-07-20T08:47:23.431Z,945.87
2018-07-20T08:48:31.488Z,947.19
2018-07-20T08:49:39.571Z,946.68
2018-07-20T08:50:47.784Z,947.81
2018-07-20T08:51:56.037Z,947.75
2018-07-20T08:53:04.023Z,947.40
2018-07-20T08:54:12.194Z,947.21
2018-07-20T08:55:20.849Z,947.16
2018-07-20T08:56:28.649Z,946.92
2018-07-20T08:57:36.378Z,946.64
2018-07-20T08:58:44.714Z,946.58
2018-07-20T08:59:52.554Z,946.36
2018-07-20T09:01:00.729Z,946.16
2018-07-20T09:02:08.763Z,946.04
2018-07-20T09:03:16.813Z,946.03
2018-07-20T09:04:24.881Z,945.64
2018-07-20T09:05:32.993Z,945.05
2018-07-20T09:06:41.056Z,944.08
2018-07-20T09:07:49.260Z,944.27
2018-07-20T09:08:57.300Z,944.05
2018-07-20T09:10:05.279Z,942.09
2018-07-20T09:11:13.381Z,941.87
2018-07-20T09:12:21.470Z,941.27
2018-07-20T09:13:29.825Z,941.31
2018-07-20T09:14:37.868Z,941.36
2018-07-20T09:15:45.904Z,941.39
2018-07-20T09:16:54.263Z,941.28
2018-07-20T09:18:02.171Z,941.36
2018-07-20T09:19:10.168Z,941.34
2018-07-20T09:20:18.445Z,941.43
2018-07-20T09:21:26.547Z,941.36
2018-07-20T09:22:34.828Z,941.25
2018-07-20T09:23:43.012Z,941.07
2018-07-20T09:24:52.014Z,941.00
2018-07-20T09:25:59.068Z,940.98
2018-07-20T09:27:07.149Z,941.08
2018-07-20T09:28:15.283Z,941.17
2018-07-20T09:29:23.420Z,941.32
2018-07-20T09:30:33.840Z,941.40
2018-07-20T09:31:41.963Z,941.40
2018-07-20T09:32:49.974Z,941.41
2018-07-20T09:33:58.175Z,941.23
2018-07-20T09:35:06.120Z,941.21
2018-07-20T09:36:14.211Z,941.17
2018-07-20T09:37:22.294Z,941.03
2018-07-20T09:38:30.458Z,941.11
2018-07-20T09:39:38.539Z,941.21
2018-07-20T09:40:46.525Z,941.19
2018-07-20T09:41:54.595Z,941.15
2018-07-20T09:43:02.684Z,941.12
2018-07-20T09:44:10.759Z,941.02
2018-07-20T09:45:18.941Z,941.03
2018-07-20T09:46:26.909Z,940.99
2018-07-20T09:47:34.976Z,941.00
2018-07-20T09:48:43.063Z,941.04
2018-07-20T09:49:51.508Z,941.00
2018-07-20T09:50:59.312Z,940.94
2018-07-20T09:52:07.283Z,940.93
2018-07-20T09:53:15.409Z,940.97
2018-07-20T09:54:23.453Z,940.93
2018-07-20T09:55:31.640Z,940.95
2018-07-20T09:56:39.635Z,940.96
2018-07-20T09:57:47.688Z,940.95
2018-07-20T09:58:56.047Z,940.94
2018-07-20T10:00:03.832Z,940.96
2018-07-20T10:01:11.914Z,940.92
2018-07-20T10:02:20.086Z,940.95
2018-07-20T10:03:28.054Z,940.98
2018-07-20T10:04:36.130Z,940.98
2018-07-20T10:05:44.209Z,940.98
2018-07-20T10:06:52.396Z,940.97
2018-07-20T10:08:00.684Z,940.93
2018-07-20T10:09:08.438Z,940.91
2018-07-20T10:10:16.502Z,940.84
2018-07-20T10:11:24.683Z,940.82
2018-07-20T10:12:32.817Z,940.87
2018-07-20T10:13:40.992Z,940.81
2018-07-20T10:14:48.824Z,940.79
2018-07-20T10:15:56.910Z,940.77
2018-07-20T10:17:04.962Z,940.75
2018-07-20T10:18:13.138Z,940.78
2018-07-20T10:19:21.131Z,940.70
2018-07-20T10:20:29.200Z,940.75
2018-07-20T10:21:37.273Z,940.81
2018-07-20T10:22:45.336Z,940.77
2018-07-20T10:23:53.540Z,940.73
2018-07-20T10:25:01.562Z,940.70
2018-07-20T10:26:09.588Z,940.71
2018-07-20T10:27:17.925Z,940.66
2018-07-20T10:28:25.729Z,940.65
2018-07-20T10:29:33.927Z,940.58
2018-07-20T10:30:41.948Z,940.54
2018-07-20T10:31:49.970Z,940.51
2018-07-20T10:32:58.060Z,940.49
2018-07-20T10:34:06.225Z,940.47
2018-07-20T10:35:14.251Z,940.44
2018-07-20T10:36:22.296Z,940.46
2018-07-20T10:37:30.353Z,940.46
2018-07-20T10:38:38.429Z,940.44
2018-07-20T10:39:46.857Z,940.41
2018-07-20T10:40:54.620Z,940.36
2018-07-20T10:42:02.655Z,940.34
2018-07-20T10:43:10.871Z,940.36
2018-07-20T10:44:18.819Z,940.37
2018-07-20T10:45:26.936Z,940.40
2018-07-20T10:46:35.059Z,940.34
2018-07-20T10:47:43.051Z,940.34
2018-07-20T10:48:51.382Z,940.49
2018-07-20T10:49:59.203Z,940.40
2018-07-20T10:51:08.307Z,940.42
2018-07-20T10:52:16.343Z,940.42
2018-07-20T10:53:24.417Z,940.45
2018-07-20T10:54:32.500Z,940.49
2018-07-20T10:55:40.673Z,940.50
2018-07-20T10:56:48.640Z,940.52
2018-07-20T10:57:56.731Z,940.54
2018-07-20T10:59:04.896Z,940.62
2018-07-20T11:00:12.883Z,940.51
2018-07-20T11:01:21.104Z,940.44
2018-07-20T11:02:29.302Z,940.43
2018-07-20T11:03:37.114Z,940.44
2018-07-20T11:04:45.173Z,940.46
2018-07-20T11:05:53.259Z,940.50
2018-07-20T11:07:01.639Z,940.48
2018-07-20T11:08:09.450Z,940.47
2018-07-20T11:09:17.496Z,940.47
2018-07-20T11:10:25.535Z,940.39
2018-07-20T11:11:33.666Z,940.40
2018-07-20T11:12:41.820Z,940.37
2018-07-20T11:13:49.873Z,940.29
2018-07-20T11:14:58.069Z,940.24
2018-07-20T11:16:05.960Z,940.16
2018-07-20T11:17:14.023Z,940.13
2018-07-20T11:18:22.098Z,940.09
2018-07-20T11:19:30.186Z,940.04
2018-07-20T11:20:38.471Z,940.03
2018-07-20T11:21:46.649Z,939.99
2018-07-20T11:22:54.725Z,939.98
2018-07-20T11:24:02.691Z,939.96
2018-07-20T11:25:10.755Z,939.99
2018-07-20T11:26:18.843Z,939.98
2018-07-20T11:27:26.955Z,939.93
2018-07-20T11:28:35.186Z,939.93
2018-07-20T11:29:43.097Z,939.91
2018-07-20T11:30:51.252Z,939.88
2018-07-20T11:31:59.236Z,939.87
2018-07-20T11:33:07.314Z,939.76
2018-07-20T11:34:15.415Z,939.77
2018-07-20T11:35:23.456Z,939.77
2018-07-20T11:36:31.541Z,939.77
2018-07-20T11:37:39.883Z,939.76
2018-07-20T11:38:47.798Z,939.78
2018-07-20T11:39:55.744Z,939.80
2018-07-20T11:41:04.101Z,939.75
2018-07-20T11:42:12.973Z,939.75
2018-07-20T11:43:20.004Z,939.71
2018-07-20T11:44:28.177Z,939.70
2018-07-20T11:45:36.142Z,939.65
2018-07-20T11:46:44.320Z,939.69
2018-07-20T11:47:52.333Z,939.72
2018-07-20T11:49:00.650Z,939.72
2018-07-20T11:50:08.541Z,939.74
2018-07-20T11:51:16.539Z,939.74
2018-07-20T11:52:24.707Z,939.74
2018-07-20T11:53:32.688Z,939.79
2018-07-20T11:54:40.746Z,939.76
2018-07-20T11:55:48.944Z,939.82
2018-07-20T11:56:56.909Z,939.81
2018-07-20T11:58:04.966Z,939.76
2018-07-20T11:59:13.114Z,939.70
2018-07-20T12:00:21.131Z,939.64
2018-07-20T12:01:29.314Z,939.65
2018-07-20T12:02:37.392Z,939.64
2018-07-20T12:03:45.355Z,939.60
2018-07-20T12:04:53.449Z,939.62
2018-07-20T12:06:01.537Z,939.62
2018-07-20T12:07:09.707Z,939.60
2018-07-20T12:08:17.678Z,939.56
2018-07-20T12:09:25.745Z,939.58
2018-07-20T12:10:33.858Z,939.56
2018-07-20T12:11:41.925Z,939.49
2018-07-20T12:12:50.030Z,939.49
2018-07-20T12:13:58.348Z,939.53
2018-07-20T12:15:06.158Z,939.53
2018-07-20T12:16:14.221Z,939.53
2018-07-20T12:17:22.401Z,939.55
2018-07-20T12:18:30.671Z,939.53
2018-07-20T12:19:38.672Z,939.48
2018-07-20T12:20:46.750Z,939.44
2018-07-20T12:21:54.819Z,939.44
2018-07-20T12:23:03.002Z,939.44
2018-07-20T12:24:10.969Z,939.43
2018-07-20T12:25:19.037Z,939.43
2018-07-20T12:26:27.124Z,939.40
2018-07-20T12:27:35.228Z,939.42
2018-07-20T12:28:43.366Z,939.38
2018-07-20T12:29:51.618Z,939.39
2018-07-20T12:31:00.482Z,939.39
2018-07-20T12:32:07.500Z,939.39
2018-07-20T12:33:15.561Z,939.38
2018-07-20T12:34:23.753Z,939.40
2018-07-20T12:35:31.716Z,939.42
2018-07-20T12:36:39.793Z,939.41
2018-07-20T12:37:47.869Z,939.44
2018-07-20T12:38:55.951Z,939.40
2018-07-20T12:40:04.128Z,939.37
2018-07-20T12:41:12.133Z,939.41
2018-07-20T12:42:20.187Z,939.37
2018-07-20T12:43:28.264Z,939.41
2018-07-20T12:44:36.346Z,939.37
2018-07-20T12:45:44.507Z,939.36
2018-07-20T12:46:52.478Z,939.39
2018-07-20T12:48:00.561Z,939.40
2018-07-20T12:49:09.709Z,939.44
2018-07-20T12:50:17.048Z,939.42
2018-07-20T12:51:24.878Z,939.44
2018-07-20T12:52:32.866Z,939.43
2018-07-20T12:53:40.943Z,939.39
2018-07-20T12:54:49.239Z,939.41
2018-07-20T12:55:57.079Z,939.39
2018-07-20T12:57:05.247Z,939.41
2018-07-20T12:58:13.238Z,939.47
2018-07-20T12:59:21.311Z,939.46
2018-07-20T13:00:29.383Z,939.50
2018-07-20T13:01:37.480Z,939.53
2018-07-20T13:02:45.814Z,939.52
2018-07-20T13:03:53.811Z,939.55
2018-07-20T13:05:01.893Z,939.56
2018-07-20T13:06:10.061Z,939.58
2018-07-20T13:07:18.047Z,939.65
2018-07-20T13:08:26.471Z,939.70
2018-07-20T13:09:34.204Z,939.70
2018-07-20T13:10:42.274Z,939.73
2018-07-20T13:11:50.420Z,939.74
2018-07-20T13:12:59.113Z,939.69
2018-07-20T13:14:06.536Z,939.76
2018-07-20T13:15:14.569Z,939.72
2018-07-20T13:16:22.641Z,939.68
2018-07-20T13:17:30.718Z,939.73
2018-07-20T13:18:38.903Z,939.72
2018-07-20T13:19:46.877Z,939.73
2018-07-20T13:20:54.938Z,939.74
2018-07-20T13:22:03.115Z,939.74
2018-07-20T13:23:11.188Z,939.65
2018-07-20T13:24:19.277Z,939.67
2018-07-20T13:25:27.238Z,939.62
2018-07-20T13:26:35.302Z,939.65
2018-07-20T13:27:43.397Z,939.66
2018-07-20T13:28:51.470Z,939.67
2018-07-20T13:29:59.640Z,939.62
2018-07-20T13:31:07.641Z,939.68
2018-07-20T13:32:15.665Z,939.69
2018-07-20T13:33:23.760Z,939.76
2018-07-20T13:34:31.856Z,939.75
2018-07-20T13:35:40.011Z,939.74
2018-07-20T13:36:47.997Z,939.70
2018-07-20T13:37:56.163Z,939.65
2018-07-20T13:39:04.151Z,939.64
2018-07-20T13:40:12.213Z,939.63
2018-07-20T13:41:20.392Z,939.57
2018-07-20T13:42:28.425Z,939.58
2018-07-20T13:43:36.441Z,939.59
2018-07-20T13:44:44.521Z,939.60
2018-07-20T13:45:52.590Z,939.56
2018-07-20T13:47:01.117Z,939.55
2018-07-20T13:48:08.745Z,939.60
2018-07-20T13:49:16.818Z,939.60
2018-07-20T13:50:24.886Z,939.58
2018-07-20T13:51:33.077Z,939.59
2018-07-20T13:52:41.232Z,939.60
2018-07-20T13:53:49.215Z,939.56
2018-07-20T13:54:57.469Z,939.56
2018-07-20T13:56:05.248Z,939.56
2018-07-20T13:57:13.353Z,939.49
2018-07-20T13:58:21.522Z,939.46
2018-07-20T13:59:29.507Z,939.42
2018-07-20T14:00:37.563Z,939.44
2018-07-20T14:01:45.621Z,939.40
2018-07-20T14:02:53.730Z,939.37
2018-07-20T14:04:02.063Z,939.39
2018-07-20T14:05:10.149Z,939.38
2018-07-20T14:06:17.962Z,939.35
2018-07-20T14:07:26.005Z,939.34
2018-07-20T14:08:34.097Z,939.38
2018-07-20T14:09:42.261Z,939.32
2018-07-20T14:10:50.248Z,939.31
2018-07-20T14:11:58.331Z,939.32
2018-07-20T14:13:06.401Z,939.32
2018-07-20T14:14:14.689Z,939.35
2018-07-20T14:15:22.869Z,939.36
2018-07-20T14:16:31.034Z,939.31